createdAt,value
2019-03-23T00:03:01.031Z,100993.51
2019-03-23T00:08:06.919Z,100977.83
2019-03-23T00:13:12.792Z,100970.14
2019-03-23T00:18:18.760Z,100962.48
2019-03-23T00:23:24.532Z,100940.16
2019-03-23T00:28:30.518Z,100928.81
2019-03-23T00:33:36.375Z,100922.33
2019-03-23T00:38:42.160Z,100916.13
2019-03-23T00:43:48.015Z,100890.01
2019-03-23T00:48:53.855Z,100887.31
2019-03-23T00:53:59.761Z,100894.52
2019-03-23T00:59:05.741Z,100884.80
2019-03-23T01:04:11.711Z,100887.45
2019-03-23T01:09:17.585Z,100877.94
2019-03-23T01:14:23.444Z,100856.16
2019-03-23T01:19:29.422Z,100852.16
2019-03-23T01:24:35.488Z,100860.43
2019-03-23T01:29:41.288Z,100867.34
2019-03-23T01:34:47.345Z,100848.78
2019-03-23T01:39:53.129Z,100839.96
2019-03-23T01:44:59.093Z,100856.27
2019-03-23T01:50:07.627Z,100849.00
2019-03-23T01:55:13.626Z,100828.94
2019-03-23T02:00:19.423Z,100822.58
2019-03-23T02:05:25.528Z,100828.71
2019-03-23T02:10:31.399Z,100806.95
2019-03-23T02:15:38.290Z,100816.91
2019-03-23T02:20:44.165Z,100817.88
2019-03-23T02:25:49.930Z,100811.91
2019-03-23T02:30:55.698Z,100817.38
2019-03-23T02:36:01.587Z,100819.48
2019-03-23T02:41:07.550Z,100818.41
2019-03-23T02:46:13.319Z,100813.92
2019-03-23T02:51:19.347Z,100824.38
2019-03-23T02:56:25.268Z,100825.67
2019-03-23T03:01:31.076Z,100823.81
2019-03-23T03:06:37.007Z,100829.87
2019-03-23T03:11:42.912Z,100823.91
2019-03-23T03:16:48.866Z,100836.65
2019-03-23T03:21:54.623Z,100842.56
2019-03-23T03:27:00.502Z,100826.80
2019-03-23T03:32:06.382Z,100825.52
2019-03-23T03:37:14.894Z,100829.09
2019-03-23T03:42:20.770Z,100825.89
2019-03-23T03:47:26.551Z,100837.28
2019-03-23T03:52:32.412Z,100822.23
2019-03-23T03:57:38.274Z,100814.41
2019-03-23T04:02:44.070Z,100822.02
2019-03-23T04:07:50.128Z,100843.63
2019-03-23T04:12:56.025Z,100825.38
2019-03-23T04:18:01.769Z,100829.00
2019-03-23T04:23:08.558Z,100820.52
2019-03-23T04:28:14.333Z,100832.39
2019-03-23T04:33:20.102Z,100832.27
2019-03-23T04:38:25.964Z,100837.48
2019-03-23T04:43:32.966Z,100823.26
2019-03-23T04:48:38.949Z,100811.54
2019-03-23T04:53:44.906Z,100817.15
2019-03-23T04:58:50.775Z,100819.77
2019-03-23T05:03:56.755Z,100807.78
2019-03-23T05:09:02.627Z,100807.08
2019-03-23T05:14:08.561Z,100811.12
2019-03-23T05:19:14.527Z,100796.52
2019-03-23T05:24:20.544Z,100831.50
2019-03-23T05:29:26.415Z,100818.44
2019-03-23T05:34:32.287Z,100809.02
2019-03-23T05:39:38.155Z,100786.58
2019-03-23T05:44:44.046Z,100775.61
2019-03-23T05:49:49.896Z,100773.74
2019-03-23T05:54:56.098Z,100785.83
2019-03-23T06:00:01.857Z,100769.53
2019-03-23T06:05:07.835Z,100744.63
2019-03-23T06:10:13.693Z,100736.64
2019-03-23T06:15:19.567Z,100740.03
2019-03-23T06:20:25.449Z,100769.99
2019-03-23T06:25:31.306Z,100789.98
2019-03-23T06:30:37.220Z,100764.50
2019-03-23T06:35:44.071Z,100750.53
2019-03-23T06:40:49.948Z,100731.43
2019-03-23T06:45:55.716Z,100678.02
2019-03-23T06:51:03.306Z,100648.91
2019-03-23T06:56:08.991Z,100638.91
2019-03-23T07:01:14.878Z,100627.39
2019-03-23T07:06:20.839Z,100672.06
2019-03-23T07:11:26.718Z,100683.04
2019-03-23T07:16:32.647Z,100700.13
2019-03-23T07:21:38.589Z,100715.14
2019-03-23T07:26:45.479Z,100704.43
2019-03-23T07:31:51.438Z,100628.62
2019-03-23T07:36:57.412Z,100672.23
2019-03-23T07:42:03.266Z,100717.73
2019-03-23T07:47:09.344Z,100745.34
2019-03-23T07:52:15.314Z,100804.05
2019-03-23T07:57:21.371Z,100796.73
2019-03-23T08:02:27.274Z,100782.48
2019-03-23T08:07:33.287Z,100816.61
2019-03-23T08:12:39.227Z,100813.47
2019-03-23T08:17:47.285Z,100768.69
2019-03-23T08:22:54.411Z,100718.59
2019-03-23T08:28:00.320Z,100652.56
2019-03-23T08:33:06.670Z,100658.63
2019-03-23T08:38:12.558Z,100603.59
2019-03-23T08:43:18.441Z,100619.73
2019-03-23T08:48:24.323Z,100637.41
2019-03-23T08:53:30.189Z,100621.23
2019-03-23T08:58:35.225Z,100580.83
2019-03-23T09:03:51.789Z,100559.92
2019-03-23T09:08:49.059Z,100581.31
2019-03-23T09:13:55.058Z,100574.31
2019-03-23T09:19:02.012Z,100633.82
2019-03-23T09:24:08.184Z,100620.31
2019-03-23T09:29:13.957Z,100682.84
2019-03-23T09:34:20.102Z,100772.77
2019-03-23T09:39:25.993Z,100795.75
2019-03-23T09:44:32.014Z,100809.73
2019-03-23T09:49:38.036Z,100818.09
2019-03-23T09:54:43.987Z,100882.80
2019-03-23T09:59:50.087Z,100866.83
2019-03-23T10:04:56.265Z,100895.36
2019-03-23T10:10:02.057Z,100898.03
2019-03-23T10:15:09.227Z,100871.98
2019-03-23T10:20:15.145Z,100893.22
2019-03-23T10:25:21.072Z,100848.69
2019-03-23T10:30:26.957Z,100848.56
2019-03-23T10:35:32.960Z,100849.06
2019-03-23T10:40:38.908Z,100864.98
2019-03-23T10:45:44.779Z,100866.98
2019-03-23T10:50:50.749Z,100850.11
2019-03-23T10:55:56.523Z,100842.77
2019-03-23T11:01:02.557Z,100864.08
2019-03-23T11:06:08.467Z,100855.61
2019-03-23T11:11:14.360Z,100847.45
2019-03-23T11:16:20.341Z,100840.91
2019-03-23T11:21:26.288Z,100860.44
2019-03-23T11:26:32.327Z,100864.47
2019-03-23T11:31:38.262Z,100909.78
2019-03-23T11:36:44.303Z,100930.84
2019-03-23T11:41:50.178Z,100911.30
2019-03-23T11:46:56.243Z,100900.48
2019-03-23T11:52:02.124Z,100889.97
2019-03-23T11:57:09.116Z,100908.63
2019-03-23T12:02:14.997Z,100914.92
2019-03-23T12:07:21.165Z,100889.30
2019-03-23T12:12:27.148Z,100924.41
2019-03-23T12:17:32.906Z,100919.61
2019-03-23T12:22:38.778Z,100895.64
2019-03-23T12:27:44.728Z,100836.09
2019-03-23T12:32:51.031Z,100792.31
2019-03-23T12:37:56.910Z,100771.95
2019-03-23T12:43:02.769Z,100761.12
2019-03-23T12:48:08.697Z,100720.74
2019-03-23T12:53:15.614Z,100704.85
2019-03-23T12:58:22.848Z,100708.00
2019-03-23T13:03:29.029Z,100696.81
2019-03-23T13:08:35.120Z,100678.65
2019-03-23T13:13:41.088Z,100726.83
2019-03-23T13:18:46.977Z,100716.64
2019-03-23T13:23:52.993Z,100725.20
2019-03-23T13:28:59.018Z,100702.91
2019-03-23T13:34:04.993Z,100691.78
2019-03-23T13:39:11.012Z,100680.05
2019-03-23T13:44:17.063Z,100694.14
2019-03-23T13:49:23.090Z,100723.99
2019-03-23T13:54:28.974Z,100711.02
2019-03-23T13:59:47.131Z,100715.55
2019-03-23T14:04:53.348Z,100688.97
2019-03-23T14:09:59.396Z,100731.02
2019-03-23T14:15:07.630Z,100733.14
2019-03-23T14:20:14.113Z,100728.50
2019-03-23T14:25:20.077Z,100742.33
2019-03-23T14:30:25.941Z,100774.22
2019-03-23T14:35:31.811Z,100789.58
2019-03-23T14:40:37.686Z,100818.44
2019-03-23T14:45:43.558Z,100833.08
2019-03-23T14:50:49.324Z,100826.44
2019-03-23T14:55:55.307Z,100836.87
2019-03-23T15:01:01.067Z,100834.63
2019-03-23T15:06:07.356Z,100854.36
2019-03-23T15:11:13.250Z,100870.34
2019-03-23T15:16:19.199Z,100884.50
2019-03-23T15:21:25.072Z,100881.51
2019-03-23T15:26:31.037Z,100895.78
2019-03-23T15:31:37.212Z,100909.97
2019-03-23T15:36:43.188Z,100898.61
2019-03-23T15:41:49.102Z,100902.84
2019-03-23T15:46:55.134Z,100904.09
2019-03-23T15:52:01.002Z,100899.55
2019-03-23T15:57:06.922Z,100904.63
2019-03-23T16:02:12.857Z,100912.72
2019-03-23T16:07:18.726Z,100934.56
2019-03-23T16:12:34.269Z,100933.73
2019-03-23T16:17:32.139Z,100928.66
2019-03-23T16:22:38.151Z,100930.23
2019-03-23T16:27:44.985Z,100951.83
2019-03-23T16:32:50.942Z,100933.22
2019-03-23T16:37:56.905Z,100940.60
2019-03-23T16:43:02.729Z,100937.31
2019-03-23T16:48:08.563Z,100949.45
2019-03-23T16:53:14.487Z,100954.38
2019-03-23T16:58:21.334Z,100962.78
2019-03-23T17:03:27.240Z,100975.70
2019-03-23T17:08:33.173Z,100982.23
2019-03-23T17:13:40.006Z,100986.25
2019-03-23T17:18:45.884Z,100980.72
2019-03-23T17:23:51.753Z,100992.06
2019-03-23T17:28:57.567Z,101003.11
2019-03-23T17:34:03.448Z,101007.95
2019-03-23T17:39:09.419Z,101019.82
2019-03-23T17:44:15.346Z,101031.83
2019-03-23T17:49:21.156Z,101050.39
2019-03-23T17:54:27.195Z,101058.54
2019-03-23T17:59:33.005Z,101072.89
2019-03-23T18:04:39.178Z,101071.06
2019-03-23T18:09:45.053Z,101077.72
2019-03-23T18:14:50.928Z,101092.70
2019-03-23T18:19:56.904Z,101126.36
2019-03-23T18:25:04.929Z,101110.37
2019-03-23T18:30:25.960Z,101114.97
2019-03-23T18:35:31.829Z,101128.80
2019-03-23T18:40:38.051Z,101135.41
2019-03-23T18:45:43.930Z,101161.20
2019-03-23T18:50:50.192Z,101172.94
2019-03-23T18:55:56.250Z,101167.45
2019-03-23T19:01:02.925Z,101138.41
2019-03-23T19:06:08.838Z,101150.75
2019-03-23T19:11:15.111Z,101154.65
2019-03-23T19:16:21.158Z,101166.48
2019-03-23T19:21:27.115Z,101164.56
2019-03-23T19:26:33.020Z,101176.32
2019-03-23T19:31:38.995Z,101184.91
2019-03-23T19:36:44.900Z,101192.80
2019-03-23T19:41:50.929Z,101196.40
2019-03-23T19:46:56.822Z,101198.74
2019-03-23T19:52:02.755Z,101210.91
2019-03-23T19:57:08.630Z,101216.02
2019-03-23T20:02:14.502Z,101217.59
2019-03-23T20:07:20.511Z,101210.39
2019-03-23T20:12:26.351Z,101219.48
2019-03-23T20:17:32.373Z,101225.30
2019-03-23T20:22:39.266Z,101234.27
2019-03-23T20:27:45.128Z,101248.41
2019-03-23T20:32:50.958Z,101255.50
2019-03-23T20:37:57.049Z,101255.23
2019-03-23T20:43:03.039Z,101264.09
2019-03-23T20:48:08.979Z,101252.84
2019-03-23T20:53:16.278Z,101261.23
2019-03-23T20:58:22.259Z,101261.50
2019-03-23T21:03:28.125Z,101267.95
2019-03-23T21:08:33.988Z,101277.61
2019-03-23T21:13:39.865Z,101266.97
2019-03-23T21:18:45.738Z,101268.64
2019-03-23T21:23:52.163Z,101281.80
2019-03-23T21:28:58.196Z,101288.45
2019-03-23T21:34:04.090Z,101282.15
2019-03-23T21:39:10.047Z,101287.46
2019-03-23T21:44:15.930Z,101297.09
2019-03-23T21:49:21.802Z,101299.59
2019-03-23T21:54:27.672Z,101302.27
2019-03-23T21:59:33.530Z,101302.10
2019-03-23T22:04:39.300Z,101314.66
2019-03-23T22:09:45.169Z,101313.94
2019-03-23T22:14:52.162Z,101307.34
2019-03-23T22:19:58.150Z,101315.91
2019-03-23T22:25:04.326Z,101321.76
2019-03-23T22:30:14.366Z,101329.74
2019-03-23T22:35:20.176Z,101326.05
2019-03-23T22:40:28.140Z,101323.98
2019-03-23T22:45:35.702Z,101336.03
2019-03-23T22:50:41.204Z,101323.48
2019-03-23T22:55:47.029Z,101325.84
2019-03-23T23:00:55.455Z,101335.92
2019-03-23T23:06:01.628Z,101339.66
2019-03-23T23:11:07.815Z,101324.72
2019-03-23T23:16:13.745Z,101328.56
2019-03-23T23:21:19.650Z,101330.17
2019-03-23T23:26:25.421Z,101320.64
2019-03-23T23:31:32.316Z,101320.64
2019-03-23T23:36:38.089Z,101324.19
2019-03-23T23:41:43.957Z,101318.27
2019-03-23T23:46:50.966Z,101307.77
2019-03-23T23:51:56.923Z,101326.14
2019-03-23T23:57:02.803Z,101356.84
